Monday, October 20, 2014, 12:21 AM EDT

KFYJ, West Point, Middle Peninsula Regional Airport

Location: Shacklefords, VA, United States Lat: 37.521
Local Time: 12:21 AM EDT ( 4:21 GMT) Lon: -76.764
Time Zone: US/Eastern Elev: 22 ft

Show me the last for .
Show Decoded

2014-10-19 22:55 METAR KFYJ 200255Z AUTO 00000KT 10SM CLR 06/04 A3015 RMK AO2 T00550036 =
2014-10-19 22:35 METAR KFYJ 200235Z AUTO 00000KT 10SM CLR 06/04 A3015 RMK AO2 T00590039 =
2014-10-19 22:15 METAR KFYJ 200215Z AUTO 00000KT 10SM CLR 06/04 A3015 RMK AO2 T00550036 =
2014-10-19 21:55 METAR KFYJ 200155Z AUTO 00000KT 10SM CLR 06/04 A3015 RMK AO2 T00620042 =
2014-10-19 21:35 METAR KFYJ 200135Z AUTO 00000KT 10SM CLR 06/04 A3014 RMK AO2 T00640040 =
2014-10-19 21:15 METAR KFYJ 200115Z AUTO 00000KT 10SM CLR 07/04 A3014 RMK AO2 T00680043 =
2014-10-19 20:55 METAR KFYJ 200055Z AUTO 07003KT 10SM CLR 07/04 A3013 RMK AO2 T00690043 =
2014-10-19 20:35 METAR KFYJ 200035Z AUTO 00000KT 10SM CLR 07/04 A3013 RMK AO2 T00670038 =
2014-10-19 20:15 METAR KFYJ 200015Z AUTO 00000KT 10SM CLR 07/04 A3013 RMK AO2 T00730042 =
2014-10-19 19:55 METAR KFYJ 192355Z AUTO 00000KT 10SM CLR 09/05 A3012 RMK AO2 T00850050 10179
                 20080 =
2014-10-19 19:35 METAR KFYJ 192335Z AUTO 00000KT 10SM CLR 08/04 A3011 RMK AO2 T00840041 =
2014-10-19 19:15 METAR KFYJ 192315Z AUTO 00000KT 10SM CLR 09/05 A3010 RMK AO2 T00890045 =
2014-10-19 18:55 METAR KFYJ 192255Z AUTO 00000KT 10SM CLR 11/04 A3009 RMK AO2 T01090040 =
2014-10-19 18:35 METAR KFYJ 192235Z AUTO 00000KT 10SM CLR 12/04 A3008 RMK AO2 T01180039 =
2014-10-19 18:15 METAR KFYJ 192215Z AUTO 00000KT 10SM CLR 15/02 A3008 RMK AO2 T01470022 =
2014-10-19 17:55 METAR KFYJ 192155Z AUTO 36003KT 10SM CLR 16/M02 A3007 RMK AO2 T01621021 =
2014-10-19 17:35 METAR KFYJ 192135Z AUTO 31005KT 10SM CLR 17/M04 A3006 RMK AO2 T01691036 =
2014-10-19 17:15 METAR KFYJ 192115Z AUTO 32004KT 10SM CLR 17/M04 A3006 RMK AO2 T01731039 =
2014-10-19 16:55 METAR KFYJ 192055Z AUTO 31007KT 10SM CLR 18/M04 A3006 RMK AO2 T01761043 =
2014-10-19 16:35 METAR KFYJ 192035Z AUTO 31006KT 10SM CLR 18/M04 A3006 RMK AO2 T01781044 =
2014-10-19 16:15 METAR KFYJ 192015Z AUTO 31007G15KT 10SM CLR 18/M05 A3005 RMK AO2 T01751048 =
2014-10-19 15:55 METAR KFYJ 191955Z AUTO 30010G18KT 270V330 10SM CLR 18/M04 A3005 RMK AO2
                 T01771039 =
2014-10-19 15:35 METAR KFYJ 191935Z AUTO 33008G14KT 10SM CLR 18/M04 A3004 RMK AO2 T01761040 =
2014-10-19 15:15 METAR KFYJ 191915Z AUTO 31010KT 10SM CLR 18/M03 A3005 RMK AO2 T01761026 =
2014-10-19 14:55 METAR KFYJ 191855Z AUTO 30009G15KT 10SM CLR 17/M04 A3005 RMK AO2 T01731036 =
2014-10-19 14:35 METAR KFYJ 191835Z AUTO 32009G15KT 10SM CLR 17/M03 A3006 RMK AO2 T01721030 =
2014-10-19 14:15 METAR KFYJ 191815Z AUTO 32008G17KT 280V340 10SM CLR 17/M03 A3006 RMK AO2
                 T01701029 =
2014-10-19 13:55 METAR KFYJ 191755Z AUTO 29007G20KT 10SM CLR 17/M03 A3006 RMK AO2 T01691034 10172
                 20120 =
2014-10-19 13:35 METAR KFYJ 191735Z AUTO 30009G17KT 10SM CLR 17/M02 A3006 RMK AO2 T01681023 =
2014-10-19 13:15 METAR KFYJ 191715Z AUTO 30009G20KT 280V340 10SM CLR 16/M03 A3007 RMK AO2
                 T01621028 =
2014-10-19 12:55 METAR KFYJ 191655Z AUTO 29010G21KT 260V330 10SM CLR 16/M02 A3008 RMK AO2
                 T01631020 =
2014-10-19 12:35 METAR KFYJ 191635Z AUTO 30007G17KT 10SM CLR 16/M01 A3008 RMK AO2 T01591009 =
2014-10-19 12:15 METAR KFYJ 191615Z AUTO 29007G16KT 270V350 10SM CLR 16/00 A3008 RMK AO2
                 T01591005 =
2014-10-19 11:55 METAR KFYJ 191555Z AUTO 33008G18KT 300V010 10SM CLR 15/M01 A3008 RMK AO2
                 T01511010 =
2014-10-19 11:35 METAR KFYJ 191535Z AUTO 33012G17KT 310V010 10SM CLR 15/M01 A3008 RMK AO2
                 T01511011 =
2014-10-19 11:15 METAR KFYJ 191515Z AUTO 32013G20KT 10SM CLR 15/M01 A3008 RMK AO2 T01481012 =
2014-10-19 10:55 METAR KFYJ 191455Z AUTO 32010G20KT 10SM CLR 15/01 A3007 RMK AO2 T01480006 =
2014-10-19 10:35 METAR KFYJ 191435Z AUTO 30014G21KT 10SM SCT046 15/01 A3007 RMK AO2 T01480008 =
2014-10-19 10:15 METAR KFYJ 191415Z AUTO 33012G19KT 10SM CLR 14/01 A3007 RMK AO2 T01420012 =
2014-10-19 09:55 METAR KFYJ 191355Z AUTO 33009G21KT 300V360 10SM CLR 14/02 A3006 RMK AO2
                 T01430022 =
2014-10-19 09:35 METAR KFYJ 191335Z AUTO 33008G15KT 290V010 10SM CLR 14/04 A3006 RMK AO2
                 T01410041 =
2014-10-19 09:15 METAR KFYJ 191315Z AUTO 31008KT 10SM SCT040 13/05 A3005 RMK AO2 T01310048 =
2014-10-19 08:55 METAR KFYJ 191255Z AUTO 31007KT 10SM OVC038 13/05 A3004 RMK AO2 T01270047 =
2014-10-19 08:35 METAR KFYJ 191235Z AUTO 31008KT 10SM BKN038 13/05 A3003 RMK AO2 T01290046 =
2014-10-19 08:15 METAR KFYJ 191215Z AUTO 30005G14KT 10SM SCT048 13/05 A3003 RMK AO2 T01260046 =
2014-10-19 07:55 METAR KFYJ 191155Z AUTO 30005KT 10SM SCT048 12/05 A3001 RMK AO2 T01190047 10125
                 20113 =
2014-10-19 07:35 METAR KFYJ 191135Z AUTO 31004KT 10SM CLR 12/05 A3000 RMK AO2 T01150045 =
2014-10-19 07:15 METAR KFYJ 191115Z AUTO 30005KT 10SM CLR 11/04 A2999 RMK AO2 T01130043 =
2014-10-19 06:55 METAR KFYJ 191055Z AUTO 30005KT 10SM CLR 12/04 A2999 RMK AO2 T01150043 =
2014-10-19 06:35 METAR KFYJ 191035Z AUTO 30004KT 10SM SCT050 SCT100 12/04 A2998 RMK AO2 T01180044
                 =
2014-10-19 06:15 METAR KFYJ 191015Z AUTO 30005KT 10SM SCT055 BKN100 BKN120 12/04 A2996 RMK AO2
                 T01230041 =
2014-10-19 05:55 METAR KFYJ 190955Z AUTO 30006KT 10SM SCT055 OVC110 12/04 A2996 RMK AO2 T01230040
                 =
2014-10-19 05:35 METAR KFYJ 190935Z AUTO 30005KT 10SM SCT110 12/04 A2995 RMK AO2 T01200040 =
2014-10-19 05:15 METAR KFYJ 190915Z AUTO 30005KT 10SM CLR 12/04 A2994 RMK AO2 T01190038 =
2014-10-19 04:55 METAR KFYJ 190855Z AUTO 30004KT 10SM SCT050 SCT120 12/04 A2993 RMK AO2 T01200038
                 =
2014-10-19 04:35 METAR KFYJ 190835Z AUTO 31006KT 10SM SCT050 BKN120 13/04 A2993 RMK AO2 T01250038
                 =
2014-10-19 04:15 METAR KFYJ 190815Z AUTO 31004KT 10SM OVC120 12/04 A2992 RMK AO2 T01210037 =
2014-10-19 03:55 METAR KFYJ 190755Z AUTO 31004KT 10SM BKN110 12/04 A2992 RMK AO2 T01180036 =
2014-10-19 03:35 METAR KFYJ 190735Z AUTO 31004KT 10SM CLR 11/04 A2992 RMK AO2 T01140037 =
2014-10-19 03:15 METAR KFYJ 190715Z AUTO 31004KT 10SM CLR 12/04 A2992 RMK AO2 T01160038 =
2014-10-19 02:55 METAR KFYJ 190655Z AUTO 30005KT 10SM CLR 12/04 A2992 RMK AO2 T01160040 =
2014-10-19 02:35 METAR KFYJ 190635Z AUTO 32006KT 10SM CLR 12/04 A2991 RMK AO2 T01190040 =
2014-10-19 02:15 METAR KFYJ 190615Z AUTO 32005KT 10SM CLR 12/04 A2991 RMK AO2 T01220038 =
2014-10-19 01:55 METAR KFYJ 190555Z AUTO 32004KT 10SM CLR 13/04 A2991 RMK AO2 T01250036 10198
                 20125 402550125 =
2014-10-19 01:35 METAR KFYJ 190535Z AUTO 33004KT 10SM CLR 13/04 A2990 RMK AO2 T01270036 =
2014-10-19 01:15 METAR KFYJ 190515Z AUTO 32003KT 10SM CLR 13/04 A2990 RMK AO2 T01300040 =
2014-10-19 00:55 METAR KFYJ 190455Z AUTO 32004KT 10SM CLR 14/04 A2989 RMK AO2 T01350040 =
2014-10-19 00:35 METAR KFYJ 190435Z AUTO 31005KT 10SM SCT075 14/05 A2989 RMK AO2 T01370050 =

Support USWX by starting your Amazon purchase here.